Time;durP1;ratioP1;P1;durP2;ratioP2;P2;SDS_P1;SDS_P2;PMS_P1;PMS_P2;Temp;Humidity;BMP_temperature;BMP_pressure;BME280_temperature;BME280_humidity;BME280_pressure;Samples;Min_cycle;Max_cycle;Signal;HPM_P1;HPM_P2
2023/05/24 00:00:11;;;;;;;11.18;2.95;;;;;;;7.78;70.57;102331.09;5096349;27;20052;-71
2023/05/24 00:02:57;;;;;;;10.38;2.63;;;;;;;7.82;71.45;102325.88;5097454;28;20060;-71
2023/05/24 00:05:45;;;;;;;9.98;2.75;;;;;;;7.82;71.82;102329.41;5099943;27;20105;-71
2023/05/24 00:08:30;;;;;;;10.80;2.75;;;;;;;7.83;72.17;102325.00;5103682;27;20044;-70
2023/05/24 00:11:16;;;;;;;11.02;2.50;;;;;;;7.81;72.29;102316.25;5104207;27;20782;-71
2023/05/24 00:14:01;;;;;;;11.70;2.72;;;;;;;7.80;72.98;102318.00;5103921;28;20048;-71
2023/05/24 00:16:47;;;;;;;12.38;2.70;;;;;;;7.83;73.10;102309.25;5103689;28;20059;-73
2023/05/24 00:19:32;;;;;;;9.50;2.95;;;;;;;7.77;72.48;102297.88;5102921;27;20086;-73
2023/05/24 00:22:19;;;;;;;10.60;2.40;;;;;;;7.72;72.31;102293.47;5092044;28;20177;-73
2023/05/24 00:25:06;;;;;;;11.85;2.55;;;;;;;7.67;72.17;102296.06;5103755;27;20048;-74
2023/05/24 00:27:51;;;;;;;11.38;2.63;;;;;;;7.63;72.26;102294.28;5107154;28;20510;-72
2023/05/24 00:30:37;;;;;;;11.35;3.08;;;;;;;7.59;72.44;102290.78;5104358;28;20126;-72
2023/05/24 00:33:22;;;;;;;9.02;2.47;;;;;;;7.56;72.48;102293.38;5070461;28;20559;-72
2023/05/24 00:36:09;;;;;;;14.43;2.85;;;;;;;7.61;73.96;102299.53;5072888;28;20045;-72
2023/05/24 00:38:55;;;;;;;9.38;2.58;;;;;;;7.67;74.04;102296.06;5078510;28;20052;-71
2023/05/24 00:41:40;;;;;;;12.43;2.53;;;;;;;7.71;74.44;102299.59;5105643;28;20496;-71
2023/05/24 00:44:25;;;;;;;14.32;2.97;;;;;;;7.69;74.51;102293.44;5098906;28;20504;-71
2023/05/24 00:47:11;;;;;;;11.65;2.90;;;;;;;7.64;73.89;102293.44;5089544;28;20056;-71
2023/05/24 00:49:57;;;;;;;13.95;3.00;;;;;;;7.59;73.74;102287.25;5100709;28;20867;-72
2023/05/24 00:52:43;;;;;;;11.55;2.78;;;;;;;7.54;73.71;102283.75;5104727;28;20048;-71
2023/05/24 00:55:29;;;;;;;11.13;3.50;;;;;;;7.49;73.74;102281.09;5089253;28;20055;-71
2023/05/24 00:58:15;;;;;;;14.00;3.72;;;;;;;7.45;73.75;102280.22;5107158;28;20052;-71
2023/05/24 01:01:02;;;;;;;11.52;3.03;;;;;;;7.42;73.88;102279.31;5104303;28;20056;-72
2023/05/24 01:03:48;;;;;;;12.50;2.95;;;;;;;7.38;73.71;102280.16;5101328;28;20162;-71
2023/05/24 01:07:08;;;;;;;10.63;3.00;;;;;;;7.32;74.22;102278.38;5102676;28;20060;-71
2023/05/24 01:10:38;;;;;;;10.63;2.65;;;;;;;7.27;73.76;102275.72;5101330;27;20053;-71
2023/05/24 01:13:46;;;;;;;10.73;2.50;;;;;;;7.18;73.60;102265.16;5094786;28;20060;-71
2023/05/24 01:16:55;;;;;;;9.90;2.67;;;;;;;7.13;73.39;102269.50;5094207;27;20182;-74
2023/05/24 01:20:00;;;;;;;14.05;3.22;;;;;;;7.05;73.35;102279.94;5125047;28;20078;-74
2023/05/24 01:23:16;;;;;;;9.88;2.70;;;;;;;6.96;73.51;102267.63;5122863;27;20036;-72
2023/05/24 01:26:19;;;;;;;11.38;3.22;;;;;;;6.89;73.70;102264.94;5105173;28;20123;-72
2023/05/24 01:29:06;;;;;;;11.90;3.13;;;;;;;6.82;73.93;102267.53;5101133;27;20052;-71
2023/05/24 01:31:52;;;;;;;11.95;3.20;;;;;;;6.79;74.17;102266.63;5103141;28;20048;-74
2023/05/24 01:34:38;;;;;;;10.75;3.53;;;;;;;6.74;74.35;102269.22;5091787;28;20053;-73
2023/05/24 01:37:23;;;;;;;10.27;2.78;;;;;;;6.71;74.73;102268.31;5102877;28;20470;-74
2023/05/24 01:40:10;;;;;;;14.15;3.50;;;;;;;6.68;75.00;102266.53;5096124;28;20959;-74
2023/05/24 01:43:22;;;;;;;14.02;3.50;;;;;;;6.64;75.11;102265.63;5102993;28;20051;-74
2023/05/24 01:46:32;;;;;;;16.10;3.60;;;;;;;6.60;75.17;102263.84;5099531;28;20057;-74
2023/05/24 01:49:26;;;;;;;11.32;3.15;;;;;;;6.55;75.56;102259.44;5098437;28;20045;-74
2023/05/24 01:52:18;;;;;;;10.15;2.80;;;;;;;6.51;75.89;102258.53;5089369;28;20056;-73
2023/05/24 01:55:07;;;;;;;13.35;3.30;;;;;;;6.49;75.82;102261.13;5096810;28;20052;-73
2023/05/24 01:58:01;;;;;;;18.02;3.55;;;;;;;6.50;76.33;102267.25;5100308;28;20052;-73
2023/05/24 02:00:48;;;;;;;12.15;3.00;;;;;;;6.47;76.47;102265.47;5086582;28;20052;-73
2023/05/24 02:03:37;;;;;;;12.65;3.25;;;;;;;6.46;76.75;102261.06;5099338;28;20543;-71
2023/05/24 02:06:22;;;;;;;14.07;3.67;;;;;;;6.45;76.68;102261.97;5103403;28;20060;-72
2023/05/24 02:09:07;;;;;;;11.63;3.10;;;;;;;6.45;76.77;102264.59;5100603;28;20048;-71
2023/05/24 02:11:53;;;;;;;10.73;3.28;;;;;;;6.43;76.73;102268.94;5085119;28;20190;-72
2023/05/24 02:14:41;;;;;;;9.68;3.28;;;;;;;6.42;76.83;102267.19;5078783;28;20052;-72
2023/05/24 02:17:26;;;;;;;13.30;2.95;;;;;;;6.39;76.73;102267.13;5092674;28;20052;-72
2023/05/24 02:20:12;;;;;;;8.98;3.08;;;;;;;6.37;76.87;102264.50;5075637;28;20065;-72
2023/05/24 02:22:58;;;;;;;15.98;4.13;;;;;;;6.36;77.04;102267.09;5104701;28;20048;-71
2023/05/24 02:25:44;;;;;;;10.43;3.50;;;;;;;6.33;77.08;102272.31;5100999;28;20060;-71
2023/05/24 02:28:31;;;;;;;14.77;4.00;;;;;;;6.31;77.31;102268.81;5106087;28;20063;-71
2023/05/24 02:31:16;;;;;;;13.18;3.63;;;;;;;6.30;77.69;102267.94;5102566;28;20056;-74
2023/05/24 02:34:02;;;;;;;11.45;3.60;;;;;;;6.28;77.67;102267.03;5105294;27;20201;-73
2023/05/24 02:36:48;;;;;;;14.98;3.83;;;;;;;6.30;78.11;102261.81;5100252;28;20059;-73
2023/05/24 02:39:34;;;;;;;13.82;3.80;;;;;;;6.30;78.03;102261.81;5095294;28;20134;-73
2023/05/24 02:42:19;;;;;;;12.77;3.83;;;;;;;6.32;78.33;102266.19;5106488;28;20090;-73
2023/05/24 02:45:07;;;;;;;16.33;4.13;;;;;;;6.34;78.71;102264.47;5106229;28;20060;-73
2023/05/24 02:47:53;;;;;;;15.13;4.38;;;;;;;6.36;78.90;102270.59;5106237;28;20150;-73
2023/05/24 02:50:38;;;;;;;15.75;4.50;;;;;;;6.38;79.07;102275.84;5100162;27;20082;-73
2023/05/24 02:53:23;;;;;;;17.75;4.63;;;;;;;6.39;79.62;102276.75;5106747;27;20056;-73
2023/05/24 02:56:10;;;;;;;11.52;3.50;;;;;;;6.36;80.14;102277.56;5086878;28;20106;-72
2023/05/24 02:58:55;;;;;;;12.60;3.97;;;;;;;6.35;80.02;102271.47;5105142;27;20052;-73
2023/05/24 03:01:41;;;;;;;14.00;3.78;;;;;;;6.34;80.06;102271.47;5102136;28;20056;-72
2023/05/24 03:04:26;;;;;;;12.93;3.67;;;;;;;6.34;80.13;102279.31;5099767;28;20531;-72
2023/05/24 03:07:13;;;;;;;15.82;4.00;;;;;;;6.34;80.13;102276.69;5100832;28;20056;-72
2023/05/24 03:09:59;;;;;;;12.48;4.07;;;;;;;6.33;80.14;102277.56;5102956;28;20052;-70
2023/05/24 03:12:44;;;;;;;10.50;3.20;;;;;;;6.32;80.17;102276.66;5095763;28;20056;-70
2023/05/24 03:15:29;;;;;;;13.93;3.95;;;;;;;6.34;80.43;102277.56;5088691;28;20056;-70
2023/05/24 03:18:15;;;;;;;14.43;4.72;;;;;;;6.35;81.25;102266.22;5092099;28;20165;-71
2023/05/24 03:21:02;;;;;;;17.83;4.72;;;;;;;6.36;81.62;102264.47;5089537;28;20147;-72
2023/05/24 03:23:48;;;;;;;15.68;4.70;;;;;;;6.41;82.33;102260.19;5094617;28;20072;-70
2023/05/24 03:26:35;;;;;;;14.80;5.00;;;;;;;6.49;83.94;102257.63;5073256;28;20056;-71
2023/05/24 03:29:20;;;;;;;18.92;5.38;;;;;;;6.56;84.63;102251.56;5105472;28;20048;-71
2023/05/24 03:32:07;;;;;;;19.65;5.60;;;;;;;6.61;84.53;102260.38;5077394;28;20063;-71
2023/05/24 03:34:53;;;;;;;15.55;5.15;;;;;;;6.67;85.61;102255.19;5087676;28;20160;-70
2023/05/24 03:37:38;;;;;;;16.98;5.68;;;;;;;6.68;85.21;102256.94;5089137;28;20048;-72
2023/05/24 03:40:24;;;;;;;15.15;5.65;;;;;;;6.72;85.28;102256.94;5092887;28;20515;-73
2023/05/24 03:43:15;;;;;;;17.50;6.20;;;;;;;6.73;84.76;102259.59;5088241;28;20056;-73
2023/05/24 03:46:12;;;;;;;14.40;5.15;;;;;;;6.78;84.39;102257.88;5102188;27;20575;-73
2023/05/24 03:48:59;;;;;;;18.05;5.82;;;;;;;6.83;84.66;102248.31;5103667;27;20051;-73
2023/05/24 03:51:44;;;;;;;15.25;5.88;;;;;;;6.91;84.96;102251.00;5100752;27;20053;-73
2023/05/24 03:54:30;;;;;;;11.38;5.45;;;;;;;6.93;85.10;102238.75;5100808;27;20992;-73
2023/05/24 03:57:16;;;;;;;15.27;5.82;;;;;;;6.97;85.38;102245.78;5101269;27;20547;-73
2023/05/24 04:00:01;;;;;;;21.17;6.07;;;;;;;7.03;84.97;102247.59;5102177;27;20159;-73
2023/05/24 04:02:47;;;;;;;17.75;5.70;;;;;;;7.06;84.84;102250.25;5103796;27;20052;-75
2023/05/24 04:05:33;;;;;;;15.32;6.05;;;;;;;7.10;84.48;102249.38;5090751;27;20052;-75
2023/05/24 04:08:19;;;;;;;18.08;6.22;;;;;;;7.14;84.17;102252.88;5104457;27;20040;-76
2023/05/24 04:11:05;;;;;;;16.17;6.18;;;;;;;7.23;84.53;102254.72;5105298;27;20420;-76
2023/05/24 04:13:51;;;;;;;30.88;6.72;;;;;;;7.30;85.02;102257.38;5088051;28;20132;-72
2023/05/24 04:16:38;;;;;;;17.85;6.15;;;;;;;7.42;84.85;102253.94;5081619;27;20048;-72
2023/05/24 04:19:24;;;;;;;17.77;5.65;;;;;;;7.48;84.92;102255.72;5083430;28;20432;-72
2023/05/24 04:22:10;;;;;;;28.88;6.95;;;;;;;7.52;85.07;102264.50;5106445;27;20492;-70
2023/05/24 04:24:55;;;;;;;22.50;5.75;;;;;;;7.59;84.78;102258.38;5102963;28;20056;-69
2023/05/24 04:27:40;;;;;;;21.60;6.32;;;;;;;7.62;84.90;102263.66;5089789;28;20539;-71
2023/05/24 04:30:29;;;;;;;19.02;5.72;;;;;;;7.60;85.04;102258.41;5090052;28;20048;-71
2023/05/24 04:33:15;;;;;;;16.92;5.68;;;;;;;7.71;85.07;102262.84;5078880;28;20056;-69
2023/05/24 04:36:01;;;;;;;14.25;5.25;;;;;;;7.78;85.38;102248.84;5069761;28;20128;-69
2023/05/24 04:38:47;;;;;;;18.67;6.47;;;;;;;7.87;85.20;102261.16;5088465;28;22121;-71
2023/05/24 04:41:34;;;;;;;18.77;6.00;;;;;;;7.97;84.90;102264.66;5107198;27;20140;-74
2023/05/24 04:44:20;;;;;;;22.25;5.82;;;;;;;8.10;84.69;102274.34;5100832;27;20051;-76
2023/05/24 04:47:06;;;;;;;20.80;6.35;;;;;;;8.19;84.50;102278.78;5104432;27;20052;-77
2023/05/24 04:49:52;;;;;;;15.65;6.25;;;;;;;8.51;83.83;102276.22;5100482;28;20098;-76
2023/05/24 04:52:37;;;;;;;28.42;6.68;;;;;;;8.63;83.23;102280.63;5103378;28;20052;-76
2023/05/24 04:55:22;;;;;;;16.92;5.80;;;;;;;8.79;82.66;102278.00;5106406;28;20059;-76
2023/05/24 04:58:08;;;;;;;16.98;5.72;;;;;;;9.45;80.89;102277.03;5102651;27;20625;-76
2023/05/24 05:00:55;;;;;;;17.33;6.60;;;;;;;9.60;79.74;102281.38;5103575;28;20492;-76
2023/05/24 05:03:40;;;;;;;16.33;5.80;;;;;;;9.55;79.93;102272.63;5104882;28;20052;-77
2023/05/24 05:06:26;;;;;;;21.83;6.22;;;;;;;9.83;79.29;102267.25;5102597;28;20060;-76
2023/05/24 05:09:14;;;;;;;16.70;5.45;;;;;;;10.83;76.55;102274.56;5103144;27;20055;-76
2023/05/24 05:12:01;;;;;;;17.58;5.07;;;;;;;10.75;76.16;102270.22;5103501;28;20052;-77
2023/05/24 05:14:47;;;;;;;23.92;5.78;;;;;;;10.52;76.38;102272.16;5097884;28;20523;-76
2023/05/24 05:17:32;;;;;;;22.92;5.70;;;;;;;10.57;76.62;102280.03;5103791;27;20049;-76
2023/05/24 05:20:18;;;;;;;15.90;5.25;;;;;;;10.66;76.20;102271.16;5099026;28;20123;-76
2023/05/24 05:23:03;;;;;;;17.00;5.53;;;;;;;11.14;75.14;102274.25;5102618;28;20476;-76
2023/05/24 05:25:48;;;;;;;15.50;5.15;;;;;;;11.33;74.44;102276.72;5094191;28;20056;-77
2023/05/24 05:28:34;;;;;;;12.30;4.50;;;;;;;12.62;71.40;102273.28;5103218;28;21029;-70
2023/05/24 05:31:20;;;;;;;13.25;4.57;;;;;;;14.50;65.99;102272.25;5105858;27;20740;-71
2023/05/24 05:34:08;;;;;;;20.02;5.10;;;;;;;16.09;61.15;102261.78;5100695;27;20055;-71
2023/05/24 05:36:54;;;;;;;13.77;4.10;;;;;;;17.44;57.40;102254.66;5104772;28;20170;-71
2023/05/24 05:39:40;;;;;;;16.27;4.45;;;;;;;18.60;54.45;102253.66;5110042;28;20139;-71
2023/05/24 05:42:25;;;;;;;16.08;4.20;;;;;;;19.56;51.11;102251.31;5103217;28;20143;-71
2023/05/24 05:45:10;;;;;;;15.65;4.10;;;;;;;20.39;47.97;102249.22;5107549;28;20056;-71
2023/05/24 05:47:56;;;;;;;15.02;3.85;;;;;;;21.03;46.29;102244.19;5105242;28;20114;-71
2023/05/24 05:50:41;;;;;;;15.25;4.43;;;;;;;21.63;44.17;102247.34;5106023;28;20131;-71
2023/05/24 05:53:27;;;;;;;11.38;3.28;;;;;;;22.01;42.47;102244.31;5109520;27;20419;-71
2023/05/24 05:56:12;;;;;;;13.02;3.70;;;;;;;22.42;42.01;102248.31;5110287;28;20135;-72
2023/05/24 05:58:57;;;;;;;12.55;3.35;;;;;;;22.76;41.31;102247.16;5108626;27;20081;-71
2023/05/24 06:01:47;;;;;;;10.52;3.65;;;;;;;23.06;40.01;102245.38;5128343;28;20091;-71
2023/05/24 06:04:33;;;;;;;21.17;4.20;;;;;;;23.07;39.70;102253.38;5123996;27;20051;-72
2023/05/24 06:07:19;;;;;;;11.98;3.65;;;;;;;22.27;40.39;102242.81;5126038;28;20060;-72
2023/05/24 06:10:05;;;;;;;21.02;4.60;;;;;;;20.05;43.41;102255.31;5111554;28;20816;-71
2023/05/24 06:12:51;;;;;;;16.45;3.58;;;;;;;17.91;48.17;102251.06;5108003;28;20540;-71
2023/05/24 06:15:36;;;;;;;15.80;4.30;;;;;;;16.43;51.94;102261.56;5109420;28;20479;-71
2023/05/24 06:18:22;;;;;;;17.83;4.20;;;;;;;15.37;55.50;102271.78;5109047;28;20696;-71
2023/05/24 06:21:09;;;;;;;18.55;4.70;;;;;;;14.64;58.17;102274.56;5093401;28;20048;-71
2023/05/24 06:23:56;;;;;;;19.60;4.70;;;;;;;14.06;60.84;102275.03;5106069;28;20197;-70
2023/05/24 06:26:42;;;;;;;21.50;5.03;;;;;;;13.66;62.01;102279.38;5103581;28;20142;-70
2023/05/24 06:29:27;;;;;;;20.25;4.80;;;;;;;13.38;63.31;102277.25;5109951;28;20048;-71
2023/05/24 06:32:12;;;;;;;20.50;5.93;;;;;;;13.18;64.53;102275.88;5108065;27;20544;-71
2023/05/24 06:34:58;;;;;;;20.50;5.75;;;;;;;13.07;65.65;102288.41;5109365;27;20336;-71
2023/05/24 06:37:43;;;;;;;24.48;5.47;;;;;;;12.99;66.03;102290.34;5101114;28;20135;-71
2023/05/24 06:40:28;;;;;;;25.98;5.68;;;;;;;12.88;67.16;102296.69;5103000;28;20052;-71
2023/05/24 06:43:14;;;;;;;22.40;5.57;;;;;;;12.63;67.31;102305.91;5109534;28;20056;-71
2023/05/24 06:45:59;;;;;;;17.42;5.15;;;;;;;12.44;68.89;102311.47;5106731;28;20060;-70
2023/05/24 06:48:44;;;;;;;26.00;6.35;;;;;;;12.30;69.10;102309.03;5105536;28;20555;-70
2023/05/24 06:51:32;;;;;;;18.52;5.43;;;;;;;12.18;70.12;102309.19;5103594;28;20060;-69
2023/05/24 06:54:18;;;;;;;20.80;5.47;;;;;;;12.25;70.35;102310.88;5087707;28;20049;-70
2023/05/24 06:57:04;;;;;;;27.83;5.68;;;;;;;12.27;70.53;102311.72;5097459;28;20052;-70
2023/05/24 06:59:49;;;;;;;16.27;4.32;;;;;;;12.29;70.02;102309.06;5099696;28;20156;-69
2023/05/24 07:02:35;;;;;;;27.15;5.43;;;;;;;12.33;70.21;102303.72;5104726;28;20071;-70
2023/05/24 07:05:21;;;;;;;24.83;4.97;;;;;;;12.49;70.53;102308.75;5107940;28;20055;-70
2023/05/24 07:08:06;;;;;;;18.17;5.00;;;;;;;12.78;70.52;102303.03;5104420;27;20523;-71
2023/05/24 07:10:55;;;;;;;17.70;4.45;;;;;;;13.02;69.43;102303.53;5109715;28;20091;-71
2023/05/24 07:13:41;;;;;;;21.55;4.20;;;;;;;13.25;67.73;102305.75;5109537;28;20504;-71
2023/05/24 07:16:26;;;;;;;16.75;4.38;;;;;;;13.42;67.36;102301.94;5109386;28;20060;-71
2023/05/24 07:19:12;;;;;;;16.00;4.38;;;;;;;13.68;67.09;102304.09;5109624;28;20048;-70
2023/05/24 07:21:58;;;;;;;15.50;3.30;;;;;;;13.97;64.95;102308.81;5108413;28;20063;-71
2023/05/24 07:24:43;;;;;;;15.10;3.17;;;;;;;14.02;62.89;102302.50;5109876;28;20055;-70
2023/05/24 07:27:28;;;;;;;17.92;4.00;;;;;;;14.10;63.21;102298.78;5109386;28;20052;-71
2023/05/24 07:30:14;;;;;;;19.48;4.13;;;;;;;14.37;62.93;102306.16;5109774;28;20052;-70
2023/05/24 07:33:16;;;;;;;11.98;2.97;;;;;;;14.65;59.81;102310.81;5109618;28;20160;-70
2023/05/24 07:36:04;;;;;;;14.07;3.33;;;;;;;14.87;59.01;102309.44;5108372;27;20098;-71
2023/05/24 07:38:50;;;;;;;12.02;3.03;;;;;;;14.90;59.31;102309.31;5099801;28;20052;-70
2023/05/24 07:41:36;;;;;;;13.98;3.30;;;;;;;14.97;59.94;102306.53;5088524;28;20048;-70
2023/05/24 07:44:22;;;;;;;11.50;3.03;;;;;;;15.17;58.68;102306.00;5108301;28;20064;-71
2023/05/24 07:47:08;;;;;;;12.00;3.38;;;;;;;15.27;57.63;102301.34;5109997;28;20814;-70
2023/05/24 07:49:53;;;;;;;18.45;2.90;;;;;;;15.31;59.32;102306.53;5102374;28;20520;-70
2023/05/24 07:52:38;;;;;;;12.00;3.47;;;;;;;15.50;58.67;102301.59;5103025;27;20495;-71
2023/05/24 07:55:24;;;;;;;11.80;2.55;;;;;;;15.80;55.47;102304.28;5106009;28;20507;-70
2023/05/24 07:58:10;;;;;;;10.52;3.00;;;;;;;15.80;55.96;102301.63;5108571;28;20063;-70
2023/05/24 08:00:55;;;;;;;13.65;2.90;;;;;;;15.72;54.25;102297.44;5107907;28;20056;-70
2023/05/24 08:03:41;;;;;;;16.35;3.15;;;;;;;15.49;54.86;102306.91;5105227;28;20915;-70
2023/05/24 08:06:27;;;;;;;11.90;2.97;;;;;;;15.46;55.19;102301.72;5109605;28;20094;-70
2023/05/24 08:09:12;;;;;;;19.38;4.38;;;;;;;15.29;57.05;102302.16;5097271;28;20048;-71
2023/05/24 08:11:57;;;;;;;21.38;3.05;;;;;;;15.47;55.96;102300.78;5103829;28;20090;-70
2023/05/24 08:14:42;;;;;;;10.60;2.40;;;;;;;15.49;54.25;102291.88;5109109;28;21024;-70
2023/05/24 08:17:29;;;;;;;10.23;2.70;;;;;;;15.53;53.72;102295.31;5108190;28;20060;-70
2023/05/24 08:20:16;;;;;;;12.05;2.75;;;;;;;15.58;54.40;102296.03;5094772;28;20052;-70
2023/05/24 08:23:02;;;;;;;15.00;2.88;;;;;;;15.66;53.39;102296.72;5072506;28;20184;-70
2023/05/24 08:25:48;;;;;;;10.65;3.10;;;;;;;15.60;54.20;102294.22;5095317;28;20144;-70
2023/05/24 08:28:34;;;;;;;15.82;3.10;;;;;;;15.54;53.54;102294.38;5092882;28;20159;-70
2023/05/24 08:31:20;;;;;;;12.02;2.55;;;;;;;15.69;52.87;102288.63;5109009;28;20504;-70
2023/05/24 08:34:06;;;;;;;27.40;4.15;;;;;;;15.80;54.63;102290.09;5089160;28;20053;-70
2023/05/24 08:36:52;;;;;;;15.15;3.10;;;;;;;16.10;54.72;102290.13;5106130;28;20499;-70
2023/05/24 08:39:38;;;;;;;13.90;3.20;;;;;;;16.36;52.70;102288.47;5105321;27;20146;-70
2023/05/24 08:42:24;;;;;;;12.90;2.92;;;;;;;16.43;50.96;102290.84;5107588;28;20662;-70
2023/05/24 08:45:12;;;;;;;8.95;2.60;;;;;;;16.49;49.79;102286.28;5102388;28;20076;-70
2023/05/24 08:47:59;;;;;;;12.20;3.10;;;;;;;16.53;49.28;102288.78;5087259;28;20496;-70
2023/05/24 08:50:46;;;;;;;11.07;2.40;;;;;;;16.44;48.83;102289.94;5095571;28;20185;-70
2023/05/24 08:53:35;;;;;;;9.90;2.58;;;;;;;16.45;48.50;102290.81;5095526;28;20059;-70
2023/05/24 08:56:22;;;;;;;9.13;2.50;;;;;;;16.61;49.27;102285.88;5093173;28;20052;-70
2023/05/24 08:59:07;;;;;;;13.00;2.72;;;;;;;16.76;49.36;102284.50;5101618;28;20033;-70
2023/05/24 09:01:53;;;;;;;8.82;2.58;;;;;;;16.95;47.86;102275.91;5105768;28;20056;-71
2023/05/24 09:04:43;;;;;;;13.70;3.30;;;;;;;16.99;49.10;102273.09;5093084;28;20102;-71
2023/05/24 09:07:28;;;;;;;12.82;2.45;;;;;;;17.02;48.98;102280.09;5112302;28;20052;-70
2023/05/24 09:10:22;;;;;;;11.85;2.53;;;;;;;17.27;48.04;102277.44;5102101;27;20048;-70
2023/05/24 09:13:10;;;;;;;11.13;2.58;;;;;;;17.35;46.97;102275.34;5109883;28;20052;-71
2023/05/24 09:15:58;;;;;;;18.95;3.35;;;;;;;17.27;47.28;102271.25;5109241;28;20059;-71
2023/05/24 09:18:43;;;;;;;8.73;2.33;;;;;;;17.22;46.37;102280.25;5102404;28;20510;-70
2023/05/24 09:21:29;;;;;;;10.73;2.85;;;;;;;16.98;48.29;102271.34;5104719;28;20946;-70
2023/05/24 09:24:15;;;;;;;12.38;3.10;;;;;;;16.98;48.57;102274.00;5106035;27;20056;-70
2023/05/24 09:27:05;;;;;;;14.90;3.28;;;;;;;16.94;48.68;102277.69;5098434;28;20052;-70
2023/05/24 09:29:52;;;;;;;11.70;2.85;;;;;;;16.91;47.85;102275.13;5110102;27;20508;-70
2023/05/24 09:32:38;;;;;;;13.50;3.15;;;;;;;16.56;48.61;102277.16;5110330;28;20155;-71
2023/05/24 09:35:25;;;;;;;11.85;2.80;;;;;;;16.34;49.74;102275.19;5109619;28;20048;-70
2023/05/24 09:38:18;;;;;;;8.15;2.42;;;;;;;16.21;48.74;102282.69;5107231;28;20877;-71
2023/05/24 09:41:05;;;;;;;7.95;2.22;;;;;;;16.05;49.49;102276.97;5090883;28;20060;-71
2023/05/24 09:43:50;;;;;;;13.65;3.13;;;;;;;16.01;49.97;102272.69;5105808;28;20071;-71
2023/05/24 09:46:37;;;;;;;9.93;2.97;;;;;;;16.17;50.32;102286.38;5109385;28;20052;-71
2023/05/24 09:49:23;;;;;;;10.52;3.03;;;;;;;16.54;50.93;102279.88;5109346;27;20643;-70
2023/05/24 09:52:12;;;;;;;14.18;2.90;;;;;;;16.85;50.62;102276.19;5110437;28;20063;-71
2023/05/24 09:54:58;;;;;;;14.23;2.97;;;;;;;17.32;47.77;102270.16;5096561;28;20139;-71
2023/05/24 09:57:50;;;;;;;11.68;2.60;;;;;;;17.21;48.17;102267.00;5104620;28;20982;-71
2023/05/24 10:00:39;;;;;;;12.10;2.70;;;;;;;17.08;47.26;102275.44;5110170;28;20082;-71
2023/05/24 10:03:26;;;;;;;11.43;2.88;;;;;;;17.22;47.08;102274.09;5110084;28;20044;-71
2023/05/24 10:06:12;;;;;;;11.45;3.00;;;;;;;17.33;46.85;102266.56;5110581;27;20059;-71
2023/05/24 10:08:58;;;;;;;15.23;2.63;;;;;;;17.59;46.79;102274.53;5106084;27;20508;-71
2023/05/24 10:11:44;;;;;;;9.90;2.78;;;;;;;17.76;46.55;102274.75;5108049;28;20056;-71
2023/05/24 10:14:37;;;;;;;29.90;3.92;;;;;;;17.81;46.86;102280.78;5110506;28;20075;-71
2023/05/24 10:17:26;;;;;;;11.52;2.70;;;;;;;17.84;46.77;102280.66;5105983;28;20067;-70
2023/05/24 10:20:12;;;;;;;13.50;2.63;;;;;;;17.74;45.87;102279.28;5107945;28;20056;-71
2023/05/24 10:23:00;;;;;;;15.45;3.00;;;;;;;17.75;46.13;102281.03;5105271;28;20105;-71
2023/05/24 10:25:55;;;;;;;11.07;2.75;;;;;;;17.72;46.31;102278.47;5109786;28;20516;-72
2023/05/24 10:28:50;;;;;;;13.45;3.13;;;;;;;17.63;47.01;102277.03;5109059;28;20091;-71
2023/05/24 10:31:40;;;;;;;13.23;3.00;;;;;;;17.66;46.59;102281.38;5108907;27;20162;-71
2023/05/24 10:34:26;;;;;;;9.95;2.88;;;;;;;17.52;46.95;102274.75;5103495;28;20060;-70
2023/05/24 10:37:11;;;;;;;12.45;2.88;;;;;;;17.51;47.61;102274.81;5108087;28;20098;-70
2023/05/24 10:39:59;;;;;;;13.38;3.30;;;;;;;17.49;48.03;102280.22;5107799;28;20139;-71
2023/05/24 10:42:46;;;;;;;11.60;2.90;;;;;;;17.46;46.75;102280.31;5109438;28;20106;-70
2023/05/24 10:45:41;;;;;;;12.63;2.80;;;;;;;17.19;46.77;102280.41;5109901;27;20060;-71
2023/05/24 10:48:26;;;;;;;12.35;2.90;;;;;;;16.97;47.02;102274.94;5109267;28;20052;-70
2023/05/24 10:51:37;;;;;;;14.77;3.05;;;;;;;16.86;46.79;102282.38;5108618;28;20113;-70
2023/05/24 10:54:25;;;;;;;15.13;2.83;;;;;;;16.79;48.47;102280.84;5103168;28;20059;-70
2023/05/24 10:57:11;;;;;;;12.40;2.85;;;;;;;17.06;48.96;102276.41;5109079;28;20060;-69
2023/05/24 10:59:57;;;;;;;10.15;3.00;;;;;;;17.30;46.85;102274.66;5108967;28;20044;-70
2023/05/24 11:02:43;;;;;;;14.68;3.03;;;;;;;17.29;47.12;102272.06;5109759;27;20052;-70
2023/05/24 11:05:35;;;;;;;17.17;3.45;;;;;;;17.42;47.49;102267.16;5109194;28;20061;-70
2023/05/24 11:08:36;;;;;;;12.57;2.55;;;;;;;17.70;47.64;102272.34;5105889;27;20501;-70
2023/05/24 11:11:27;;;;;;;12.90;3.00;;;;;;;17.88;47.38;102269.91;5088895;28;20064;-70
2023/05/24 11:14:26;;;;;;;9.18;2.95;;;;;;;17.97;47.53;102258.91;5091223;27;20412;-70
2023/05/24 11:17:11;;;;;;;13.50;3.22;;;;;;;18.12;47.71;102258.28;5094770;28;20048;-70
2023/05/24 11:19:58;;;;;;;16.70;3.30;;;;;;;18.20;46.75;102260.66;5107327;28;20064;-70
2023/05/24 11:22:44;;;;;;;13.13;2.70;;;;;;;18.05;46.65;102263.94;5106626;28;20056;-71
2023/05/24 11:25:31;;;;;;;12.13;3.08;;;;;;;18.00;46.91;102258.78;5108697;28;20060;-70
2023/05/24 11:28:17;;;;;;;21.95;4.32;;;;;;;17.85;47.59;102253.06;5109002;27;20064;-70
2023/05/24 11:31:08;;;;;;;17.38;3.05;;;;;;;18.06;47.57;102252.34;5106070;28;20167;-70
2023/05/24 11:33:53;;;;;;;15.20;3.05;;;;;;;18.41;47.46;102252.69;5106602;27;20048;-70
2023/05/24 11:36:39;;;;;;;22.13;3.55;;;;;;;18.46;46.77;102242.72;5106392;28;20534;-69
2023/05/24 11:39:36;;;;;;;15.65;3.35;;;;;;;18.53;45.61;102262.88;5108067;28;20051;-70
2023/05/24 11:42:22;;;;;;;10.90;3.17;;;;;;;18.33;46.08;102255.66;5109028;28;20048;-70
2023/05/24 11:45:09;;;;;;;13.55;3.15;;;;;;;18.27;46.25;102258.59;5107678;28;20221;-70
2023/05/24 11:47:55;;;;;;;24.05;4.05;;;;;;;18.23;46.57;102257.88;5091384;28;20483;-70
2023/05/24 11:50:43;;;;;;;23.90;4.15;;;;;;;18.61;46.39;102250.06;5093859;28;20059;-69
2023/05/24 11:53:34;;;;;;;15.05;3.30;;;;;;;18.92;47.07;102240.75;5108652;28;20055;-70
2023/05/24 11:56:20;;;;;;;15.07;3.10;;;;;;;19.17;45.76;102245.06;5107549;28;20855;-70
2023/05/24 11:59:26;;;;;;;10.25;2.50;;;;;;;19.22;44.38;102239.50;5108107;28;20060;-70
2023/05/24 12:02:11;;;;;;;17.38;3.90;;;;;;;18.96;45.29;102244.19;5107059;28;20048;-70
2023/05/24 12:05:10;;;;;;;18.95;3.28;;;;;;;19.01;45.44;102236.84;5106158;28;20904;-70
2023/05/24 12:08:11;;;;;;;21.73;3.80;;;;;;;19.10;44.19;102240.91;5094809;28;20610;-69
2023/05/24 12:10:58;;;;;;;15.48;2.67;;;;;;;19.22;44.06;102229.66;5106966;28;20052;-70
2023/05/24 12:13:43;;;;;;;13.00;2.83;;;;;;;19.47;43.64;102233.91;5108788;28;20131;-70
2023/05/24 12:16:31;;;;;;;7.35;2.55;;;;;;;19.48;41.82;102227.63;5107352;28;20096;-70
2023/05/24 12:19:19;;;;;;;13.25;3.25;;;;;;;19.17;43.34;102226.34;5107446;28;20546;-70
2023/05/24 12:22:17;;;;;;;13.88;2.55;;;;;;;19.04;42.83;102226.00;5103763;28;20052;-70
2023/05/24 12:25:03;;;;;;;14.43;2.80;;;;;;;19.02;43.76;102225.22;5106678;28;20071;-70
2023/05/24 12:27:55;;;;;;;10.38;2.63;;;;;;;19.52;42.56;102228.34;5106478;28;20052;-70
2023/05/24 12:30:43;;;;;;;11.75;2.53;;;;;;;19.52;42.36;102225.69;5105157;28;20492;-70
2023/05/24 12:33:29;;;;;;;9.85;2.58;;;;;;;19.39;41.94;102218.22;5105930;28;20090;-70
2023/05/24 12:36:16;;;;;;;11.70;2.67;;;;;;;19.09;42.67;102224.00;5108176;28;20404;-70
2023/05/24 12:39:17;;;;;;;10.65;2.30;;;;;;;18.90;43.13;102225.72;5096530;28;20139;-72
2023/05/24 12:42:03;;;;;;;9.45;2.28;;;;;;;19.09;42.43;102226.69;5105979;27;20051;-71
2023/05/24 12:44:51;;;;;;;13.60;2.70;;;;;;;19.20;43.32;102230.69;5087455;27;20052;-70
2023/05/24 12:47:37;;;;;;;10.15;2.45;;;;;;;19.29;43.14;102224.03;5104236;28;20106;-70
2023/05/24 12:50:25;;;;;;;11.23;2.45;;;;;;;19.06;43.57;102220.63;5103735;28;20052;-70
2023/05/24 12:53:11;;;;;;;9.60;2.45;;;;;;;18.68;43.84;102221.31;5103059;28;20056;-70
2023/05/24 12:55:59;;;;;;;7.97;2.28;;;;;;;18.28;43.25;102218.50;5100642;28;20047;-70